Terminal Aerodrome Forecast
Issued by NWS

Home | Current Version | Previous Version | Text Only | Print | Product List | Glossary On
Versions: 1 2 3 4 5 6 7 8 9 10 11 12 13 14 15 16 17 18 19 20 21 22 23 24 25 26 27 28 29 30 31 32
000
FTUS45 KREV 240520
TAFTRK
TAF
KTRK 240520Z 2406/2506 VRB04KT P6SM SCT120
     FM240900 00000KT 1/2SM FG BKN002
     FM241600 00000KT P6SM FEW060
     FM242100 19008KT P6SM VCTS SCT070CB SCT180=

USA.gov is the U.S. government's official web portal to all federal, state and local government web resources and services.